Time;durP1;ratioP1;P1;durP2;ratioP2;P2;SDS_P1;SDS_P2;PMS_P1;PMS_P2;Temp;Humidity;BMP_temperature;BMP_pressure;BME280_temperature;BME280_humidity;BME280_pressure;Samples;Min_cycle;Max_cycle;Signal;HPM_P1;HPM_P2
2024/03/23 00:01:20;;;;;;;17.15;9.55;;;;;;;;;;4945585;29;20211;-88
2024/03/23 00:04:27;;;;;;;17.95;9.57;;;;;;;;;;4944951;29;20287;-90
2024/03/23 00:07:31;;;;;;;18.90;10.13;;;;;;;;;;4948345;29;20191;-89
2024/03/23 00:10:37;;;;;;;21.00;9.52;;;;;;;;;;4947439;29;20583;-90
2024/03/23 00:13:41;;;;;;;18.08;9.73;;;;;;;;;;4948458;28;20291;-89
2024/03/23 00:16:47;;;;;;;20.65;9.77;;;;;;;;;;4945177;29;20671;-88
2024/03/23 00:19:52;;;;;;;17.23;9.63;;;;;;;;;;4957312;28;20191;-91
2024/03/23 00:22:59;;;;;;;17.08;9.68;;;;;;;;;;4945863;28;20207;-88
2024/03/23 00:26:08;;;;;;;17.88;10.02;;;;;;;;;;4946375;29;20207;-89
2024/03/23 00:29:12;;;;;;;19.02;9.63;;;;;;;;;;4947265;28;20575;-90
2024/03/23 00:32:18;;;;;;;19.65;9.88;;;;;;;;;;4946395;28;20235;-89
2024/03/23 00:35:23;;;;;;;18.20;10.50;;;;;;;;;;4948884;28;20219;-90
2024/03/23 00:38:28;;;;;;;18.42;10.23;;;;;;;;;;4947727;28;20234;-89
2024/03/23 00:41:37;;;;;;;21.60;10.40;;;;;;;;;;4948207;29;20282;-89
2024/03/23 00:44:44;;;;;;;18.65;10.23;;;;;;;;;;4948185;28;20256;-88
2024/03/23 00:47:51;;;;;;;18.05;10.18;;;;;;;;;;4947788;29;20203;-91
2024/03/23 00:50:58;;;;;;;17.90;9.73;;;;;;;;;;4948306;29;20211;-89
2024/03/23 00:54:03;;;;;;;21.30;10.07;;;;;;;;;;4947278;29;20227;-89
2024/03/23 00:57:09;;;;;;;16.60;9.13;;;;;;;;;;4947708;29;20218;-89
2024/03/23 01:00:14;;;;;;;17.45;9.63;;;;;;;;;;4946753;29;20361;-90
2024/03/23 01:03:22;;;;;;;19.58;9.55;;;;;;;;;;4947605;29;20219;-90
2024/03/23 01:06:27;;;;;;;19.70;9.43;;;;;;;;;;4945873;29;20227;-89
2024/03/23 01:09:32;;;;;;;18.73;9.30;;;;;;;;;;4939029;29;20227;-90
2024/03/23 01:12:37;;;;;;;18.42;9.07;;;;;;;;;;4952704;29;20211;-86
2024/03/23 01:15:41;;;;;;;21.33;9.38;;;;;;;;;;4925843;29;20243;-87
2024/03/23 01:18:48;;;;;;;18.85;9.93;;;;;;;;;;4943241;28;20295;-89
2024/03/23 01:21:54;;;;;;;18.80;9.23;;;;;;;;;;4943448;28;20180;-90
2024/03/23 01:24:59;;;;;;;15.85;9.30;;;;;;;;;;4945178;28;20219;-89
2024/03/23 01:28:04;;;;;;;16.80;9.38;;;;;;;;;;4944994;28;20207;-88
2024/03/23 01:31:09;;;;;;;21.17;10.00;;;;;;;;;;4926345;29;20196;-89
2024/03/23 01:34:13;;;;;;;19.77;8.57;;;;;;;;;;4926333;29;20195;-90
2024/03/23 01:37:20;;;;;;;18.35;9.23;;;;;;;;;;4932301;29;20709;-89
2024/03/23 01:40:24;;;;;;;15.35;8.82;;;;;;;;;;4944352;29;20218;-88
2024/03/23 01:43:30;;;;;;;19.45;9.35;;;;;;;;;;4945530;28;20224;-90
2024/03/23 01:46:34;;;;;;;19.60;10.60;;;;;;;;;;4957428;28;20268;-88
2024/03/23 01:49:39;;;;;;;21.27;10.68;;;;;;;;;;4930931;29;20299;-89
2024/03/23 01:52:47;;;;;;;19.13;9.45;;;;;;;;;;4927426;29;20191;-90
2024/03/23 01:55:52;;;;;;;17.90;9.57;;;;;;;;;;4946927;29;20215;-86
2024/03/23 01:58:57;;;;;;;19.88;9.73;;;;;;;;;;4945526;29;20198;-89
2024/03/23 02:02:01;;;;;;;18.83;9.15;;;;;;;;;;4946773;29;20202;-88
2024/03/23 02:05:08;;;;;;;20.30;9.10;;;;;;;;;;4943390;29;20626;-88
2024/03/23 02:08:14;;;;;;;19.85;9.80;;;;;;;;;;4936301;29;20662;-89
2024/03/23 02:11:19;;;;;;;22.63;9.90;;;;;;;;;;4923905;29;20216;-88
2024/03/23 02:14:23;;;;;;;19.40;9.63;;;;;;;;;;4929414;29;20266;-89
2024/03/23 02:17:29;;;;;;;20.30;9.85;;;;;;;;;;4942240;29;20694;-87
2024/03/23 02:20:34;;;;;;;16.77;9.02;;;;;;;;;;4942725;29;20227;-89
2024/03/23 02:23:40;;;;;;;17.55;9.68;;;;;;;;;;4928301;29;20320;-88
2024/03/23 02:26:44;;;;;;;19.80;10.27;;;;;;;;;;4936642;29;20219;-89
2024/03/23 02:29:50;;;;;;;18.20;9.35;;;;;;;;;;4947053;28;20305;-91
2024/03/23 02:32:54;;;;;;;18.83;10.65;;;;;;;;;;4941120;29;20199;-89
2024/03/23 02:35:59;;;;;;;18.77;9.38;;;;;;;;;;4943276;29;20230;-88
2024/03/23 02:39:05;;;;;;;19.05;10.15;;;;;;;;;;4924083;29;20247;-89
2024/03/23 02:42:10;;;;;;;17.88;9.65;;;;;;;;;;4923605;29;20263;-87
2024/03/23 02:45:15;;;;;;;19.20;10.35;;;;;;;;;;4939337;29;20309;-91
2024/03/23 02:48:19;;;;;;;17.08;9.85;;;;;;;;;;4942056;29;20215;-89
2024/03/23 02:51:23;;;;;;;27.45;10.35;;;;;;;;;;4942214;29;20332;-88
2024/03/23 02:54:30;;;;;;;20.17;10.10;;;;;;;;;;4937013;29;20263;-90
2024/03/23 02:57:35;;;;;;;21.95;9.93;;;;;;;;;;4942099;29;20223;-89
2024/03/23 03:00:40;;;;;;;18.30;10.27;;;;;;;;;;4942680;29;20187;-88
2024/03/23 03:03:45;;;;;;;18.60;10.23;;;;;;;;;;4934520;29;20226;-88
2024/03/23 03:06:50;;;;;;;22.83;10.88;;;;;;;;;;4922301;29;20223;-87
2024/03/23 03:09:56;;;;;;;19.85;10.55;;;;;;;;;;4922954;29;20272;-88
2024/03/23 03:13:02;;;;;;;19.92;11.35;;;;;;;;;;4944357;29;20807;-89
2024/03/23 03:16:09;;;;;;;24.05;10.80;;;;;;;;;;4940541;29;20254;-88
2024/03/23 03:19:14;;;;;;;20.77;10.15;;;;;;;;;;4941509;29;20235;-89
2024/03/23 03:22:19;;;;;;;19.70;10.40;;;;;;;;;;4941139;29;20698;-88
2024/03/23 03:25:25;;;;;;;22.13;10.57;;;;;;;;;;4944880;29;20234;-90
2024/03/23 03:28:30;;;;;;;21.23;10.25;;;;;;;;;;4932940;29;20271;-88
2024/03/23 03:31:35;;;;;;;19.20;10.35;;;;;;;;;;4933355;29;20601;-89
2024/03/23 03:34:41;;;;;;;19.25;10.35;;;;;;;;;;4938229;29;20214;-89
2024/03/23 03:37:46;;;;;;;22.60;10.27;;;;;;;;;;4922156;29;20191;-89
2024/03/23 03:40:52;;;;;;;21.25;10.80;;;;;;;;;;4933377;29;20234;-87
2024/03/23 03:44:01;;;;;;;23.25;11.40;;;;;;;;;;4944741;29;20215;-87
2024/03/23 03:47:06;;;;;;;26.40;11.30;;;;;;;;;;4943730;29;20194;-90
2024/03/23 03:50:11;;;;;;;22.00;11.30;;;;;;;;;;4944905;29;20231;-89
2024/03/23 03:53:16;;;;;;;19.73;10.63;;;;;;;;;;4944963;29;20281;-87
2024/03/23 03:56:22;;;;;;;19.20;10.52;;;;;;;;;;4944817;29;20195;-91
2024/03/23 03:59:27;;;;;;;21.20;10.43;;;;;;;;;;4945421;29;20682;-88
2024/03/23 04:02:32;;;;;;;21.90;10.63;;;;;;;;;;4945278;29;20235;-88
2024/03/23 04:05:36;;;;;;;22.45;11.00;;;;;;;;;;4944109;29;20187;-89
2024/03/23 04:08:41;;;;;;;18.92;10.57;;;;;;;;;;4944325;28;20202;-90
2024/03/23 04:11:47;;;;;;;26.55;12.57;;;;;;;;;;4945838;29;20255;-90
2024/03/23 04:14:53;;;;;;;19.38;10.65;;;;;;;;;;4925982;29;20196;-88
2024/03/23 04:17:56;;;;;;;19.77;10.77;;;;;;;;;;4936623;29;20192;-89
2024/03/23 04:21:02;;;;;;;21.13;10.35;;;;;;;;;;4925559;28;20192;-90
2024/03/23 04:24:06;;;;;;;17.20;10.05;;;;;;;;;;4940603;29;20254;-88
2024/03/23 04:27:13;;;;;;;19.27;10.15;;;;;;;;;;4943048;29;20665;-87
2024/03/23 04:30:17;;;;;;;21.88;11.55;;;;;;;;;;4944514;29;20713;-90
2024/03/23 04:33:22;;;;;;;22.45;11.18;;;;;;;;;;4945120;29;20235;-89
2024/03/23 04:36:26;;;;;;;22.35;11.68;;;;;;;;;;4924784;29;20316;-87
2024/03/23 04:39:32;;;;;;;30.08;12.38;;;;;;;;;;4925234;28;20646;-88
2024/03/23 04:42:38;;;;;;;26.13;11.15;;;;;;;;;;4931655;29;20218;-89
2024/03/23 04:45:43;;;;;;;23.73;10.82;;;;;;;;;;4933792;29;20199;-88
2024/03/23 04:48:48;;;;;;;18.73;10.60;;;;;;;;;;4944011;29;20207;-88
2024/03/23 04:51:54;;;;;;;22.10;10.80;;;;;;;;;;4943565;29;20698;-90
2024/03/23 04:54:59;;;;;;;20.70;10.80;;;;;;;;;;4944491;29;20215;-89
2024/03/23 04:58:05;;;;;;;17.77;9.95;;;;;;;;;;4944133;29;20288;-88
2024/03/23 05:01:10;;;;;;;19.02;10.32;;;;;;;;;;4943328;29;20222;-88
2024/03/23 05:04:16;;;;;;;19.67;9.75;;;;;;;;;;4944383;29;20214;-88
2024/03/23 05:07:20;;;;;;;20.40;9.85;;;;;;;;;;4944393;29;20211;-90
2024/03/23 05:10:25;;;;;;;20.50;10.23;;;;;;;;;;4943960;29;20223;-89
2024/03/23 05:13:32;;;;;;;22.98;10.57;;;;;;;;;;4944388;29;20208;-87
2024/03/23 05:16:37;;;;;;;23.27;11.50;;;;;;;;;;4944561;29;20187;-88
2024/03/23 05:19:44;;;;;;;23.27;11.93;;;;;;;;;;4925016;29;20235;-90
2024/03/23 05:22:48;;;;;;;22.47;10.90;;;;;;;;;;4925351;29;20204;-88
2024/03/23 05:25:54;;;;;;;20.63;10.27;;;;;;;;;;4925106;29;20245;-90
2024/03/23 05:29:00;;;;;;;18.07;9.87;;;;;;;;;;4946225;29;20254;-90
2024/03/23 05:32:05;;;;;;;20.42;10.77;;;;;;;;;;4943462;29;20345;-86
2024/03/23 05:35:10;;;;;;;25.35;11.07;;;;;;;;;;4940606;28;20263;-88
2024/03/23 05:38:15;;;;;;;20.93;10.43;;;;;;;;;;4924112;29;20268;-88
2024/03/23 05:41:19;;;;;;;24.60;10.90;;;;;;;;;;4936881;29;20218;-88
2024/03/23 05:44:25;;;;;;;19.70;10.50;;;;;;;;;;4934499;29;20232;-88
2024/03/23 05:47:29;;;;;;;19.47;10.07;;;;;;;;;;4943869;29;20199;-89
2024/03/23 05:50:35;;;;;;;21.02;10.63;;;;;;;;;;4943528;29;20247;-89
2024/03/23 05:53:40;;;;;;;21.07;10.10;;;;;;;;;;4924927;29;20228;-90
2024/03/23 05:56:44;;;;;;;25.23;11.30;;;;;;;;;;4923178;29;20195;-88
2024/03/23 05:59:52;;;;;;;22.43;10.63;;;;;;;;;;4942521;29;20206;-89
2024/03/23 06:02:57;;;;;;;20.20;9.52;;;;;;;;;;4935005;29;20879;-90
2024/03/23 06:06:02;;;;;;;19.73;9.23;;;;;;;;;;4943813;29;20211;-90
2024/03/23 06:09:06;;;;;;;17.58;9.40;;;;;;;;;;4944546;29;20218;-89
2024/03/23 06:12:11;;;;;;;17.80;9.13;;;;;;;;;;4925647;29;20268;-91
2024/03/23 06:15:17;;;;;;;21.27;10.07;;;;;;;;;;4929575;29;20214;-88
2024/03/23 06:18:22;;;;;;;21.95;9.65;;;;;;;;;;4937199;29;20219;-89
2024/03/23 06:21:26;;;;;;;19.00;9.57;;;;;;;;;;4945481;28;20200;-86
2024/03/23 06:24:31;;;;;;;18.13;9.10;;;;;;;;;;4944980;29;20243;-92
2024/03/23 06:27:35;;;;;;;17.30;9.27;;;;;;;;;;4933906;29;20211;-89
2024/03/23 06:30:42;;;;;;;19.88;9.43;;;;;;;;;;4925066;29;20283;-87
2024/03/23 06:33:46;;;;;;;25.80;10.13;;;;;;;;;;4931916;29;20725;-91
2024/03/23 06:36:52;;;;;;;17.23;8.80;;;;;;;;;;4927442;29;20266;-88
2024/03/23 06:39:56;;;;;;;15.13;8.90;;;;;;;;;;4942104;29;20231;-88
2024/03/23 06:43:01;;;;;;;15.10;9.25;;;;;;;;;;4942635;29;20221;-88
2024/03/23 06:46:10;;;;;;;18.70;9.05;;;;;;;;;;4944758;28;20264;-89
2024/03/23 06:49:15;;;;;;;16.35;8.88;;;;;;;;;;4923615;29;20196;-89
2024/03/23 06:52:20;;;;;;;15.70;8.60;;;;;;;;;;4934332;28;20344;-86
2024/03/23 06:55:26;;;;;;;14.02;8.57;;;;;;;;;;4935716;29;20208;-88
2024/03/23 06:58:30;;;;;;;13.82;8.32;;;;;;;;;;4926076;28;20200;-90
2024/03/23 07:01:37;;;;;;;14.38;7.97;;;;;;;;;;4931668;29;20274;-89
2024/03/23 07:04:42;;;;;;;15.35;8.10;;;;;;;;;;4945418;28;20292;-88
2024/03/23 07:07:46;;;;;;;15.52;7.70;;;;;;;;;;4945125;28;20319;-87
2024/03/23 07:10:52;;;;;;;20.52;8.55;;;;;;;;;;4946004;29;20283;-89
2024/03/23 07:13:56;;;;;;;18.70;8.73;;;;;;;;;;4945331;29;20203;-89
2024/03/23 07:17:03;;;;;;;15.73;8.10;;;;;;;;;;4944016;28;20218;-90
2024/03/23 07:20:10;;;;;;;19.27;8.88;;;;;;;;;;4944239;29;20188;-89
2024/03/23 07:23:15;;;;;;;18.52;9.07;;;;;;;;;;4926347;29;20196;-89
2024/03/23 07:26:20;;;;;;;18.63;9.45;;;;;;;;;;4933192;29;20543;-89
2024/03/23 07:29:29;;;;;;;17.58;9.32;;;;;;;;;;4926037;28;20200;-90
2024/03/23 07:32:35;;;;;;;14.77;8.48;;;;;;;;;;4927972;29;20170;-90
2024/03/23 07:35:41;;;;;;;15.57;8.32;;;;;;;;;;4937238;28;20188;-89
2024/03/23 07:38:45;;;;;;;19.15;8.75;;;;;;;;;;4933548;29;20726;-90
2024/03/23 07:41:50;;;;;;;14.35;8.40;;;;;;;;;;4955094;29;20632;-91
2024/03/23 07:44:57;;;;;;;18.58;8.80;;;;;;;;;;4944670;29;20694;-88
2024/03/23 07:48:03;;;;;;;19.92;8.95;;;;;;;;;;4934709;29;20308;-91
2024/03/23 07:51:09;;;;;;;18.88;8.80;;;;;;;;;;4930607;29;20227;-90
2024/03/23 07:54:13;;;;;;;14.82;7.90;;;;;;;;;;4938037;28;20343;-89
2024/03/23 07:57:19;;;;;;;15.23;8.27;;;;;;;;;;4945790;29;20216;-91
2024/03/23 08:00:23;;;;;;;13.38;7.30;;;;;;;;;;4945985;29;20247;-89
2024/03/23 08:03:30;;;;;;;13.65;7.07;;;;;;;;;;4940916;29;20231;-88
2024/03/23 08:06:35;;;;;;;12.85;6.80;;;;;;;;;;4924944;29;20200;-90
2024/03/23 08:09:39;;;;;;;15.43;7.55;;;;;;;;;;4938684;29;20219;-92
2024/03/23 08:12:44;;;;;;;12.25;6.50;;;;;;;;;;4937120;29;20259;-88
2024/03/23 08:15:49;;;;;;;15.15;7.15;;;;;;;;;;4943576;29;20198;-87
2024/03/23 08:18:56;;;;;;;15.35;6.75;;;;;;;;;;4946087;29;20179;-91
2024/03/23 08:22:02;;;;;;;15.02;7.00;;;;;;;;;;4946819;29;20227;-89
2024/03/23 08:25:07;;;;;;;13.85;5.68;;;;;;;;;;4944791;29;20220;-90
2024/03/23 08:28:12;;;;;;;9.02;5.20;;;;;;;;;;4948454;28;20196;-88
2024/03/23 08:31:16;;;;;;;7.25;4.38;;;;;;;;;;4948022;29;20721;-90
2024/03/23 08:34:23;;;;;;;7.72;2.83;;;;;;;;;;4948349;29;20248;-89
2024/03/23 08:37:27;;;;;;;7.05;2.72;;;;;;;;;;4951185;29;20183;-90
2024/03/23 08:40:32;;;;;;;5.63;2.72;;;;;;;;;;4929532;29;20191;-90
2024/03/23 08:43:39;;;;;;;3.22;2.13;;;;;;;;;;4952593;29;20340;-89
2024/03/23 08:46:44;;;;;;;5.05;2.25;;;;;;;;;;4946493;29;20363;-89
2024/03/23 08:49:50;;;;;;;4.43;2.35;;;;;;;;;;4937344;29;20285;-90
2024/03/23 08:52:55;;;;;;;7.22;2.45;;;;;;;;;;4929339;29;20213;-88
2024/03/23 08:56:02;;;;;;;5.97;2.55;;;;;;;;;;4927493;29;20192;-89
2024/03/23 08:59:06;;;;;;;3.90;2.10;;;;;;;;;;4955523;29;20578;-89
2024/03/23 09:02:11;;;;;;;5.72;2.50;;;;;;;;;;4947301;29;20601;-89
2024/03/23 09:05:16;;;;;;;4.80;2.20;;;;;;;;;;4949336;29;20219;-88
2024/03/23 09:08:21;;;;;;;6.55;2.28;;;;;;;;;;4947781;29;20219;-91
2024/03/23 09:11:27;;;;;;;5.55;2.35;;;;;;;;;;4934424;29;20223;-89
2024/03/23 09:14:31;;;;;;;6.28;2.38;;;;;;;;;;4932538;28;20199;-90
2024/03/23 09:17:36;;;;;;;6.97;2.83;;;;;;;;;;4928187;29;20222;-87
2024/03/23 09:20:42;;;;;;;5.80;1.90;;;;;;;;;;4938674;29;20235;-87
2024/03/23 09:23:47;;;;;;;6.32;3.03;;;;;;;;;;4928097;29;20324;-89
2024/03/23 09:26:52;;;;;;;7.57;2.22;;;;;;;;;;4950291;29;20271;-88
2024/03/23 09:29:57;;;;;;;5.47;2.70;;;;;;;;;;4941029;29;20186;-91
2024/03/23 09:33:02;;;;;;;6.43;2.53;;;;;;;;;;4941807;28;20195;-92
2024/03/23 09:36:10;;;;;;;8.20;3.60;;;;;;;;;;4929831;29;20212;-91
2024/03/23 09:39:16;;;;;;;12.98;5.28;;;;;;;;;;4951567;29;20266;-90
2024/03/23 09:42:22;;;;;;;6.55;3.13;;;;;;;;;;4937704;29;20223;-89
2024/03/23 09:45:29;;;;;;;6.28;2.90;;;;;;;;;;4929411;29;20200;-92
2024/03/23 09:48:34;;;;;;;6.05;2.80;;;;;;;;;;4926899;29;20711;-88
2024/03/23 09:51:41;;;;;;;4.90;2.55;;;;;;;;;;4936739;29;20219;-90
2024/03/23 09:54:45;;;;;;;7.80;2.85;;;;;;;;;;4948685;29;20272;-92
2024/03/23 09:57:51;;;;;;;6.22;2.28;;;;;;;;;;4947791;28;20215;-89
2024/03/23 10:00:55;;;;;;;8.00;2.30;;;;;;;;;;4947495;29;21243;-91
2024/03/23 10:04:01;;;;;;;3.15;2.08;;;;;;;;;;4943913;28;20196;-90
2024/03/23 10:07:14;;;;;;;4.30;2.40;;;;;;;;;;4948341;29;20611;-90
2024/03/23 10:10:21;;;;;;;8.23;2.70;;;;;;;;;;4948576;28;20199;-90
2024/03/23 10:13:26;;;;;;;5.88;2.22;;;;;;;;;;4949094;29;20195;-92
2024/03/23 10:16:32;;;;;;;6.07;2.70;;;;;;;;;;4948230;28;20199;-90
2024/03/23 10:19:36;;;;;;;5.05;2.10;;;;;;;;;;4948820;29;20705;-91
2024/03/23 10:22:43;;;;;;;3.45;2.10;;;;;;;;;;4948314;29;20263;-91
2024/03/23 10:25:49;;;;;;;6.70;2.00;;;;;;;;;;4948973;29;20195;-90
2024/03/23 10:28:54;;;;;;;5.68;2.20;;;;;;;;;;4947207;29;20198;-89
2024/03/23 10:32:13;;;;;;;7.57;3.00;;;;;;;;;;4947389;29;20264;-89
2024/03/23 10:35:18;;;;;;;6.43;2.40;;;;;;;;;;4948130;29;20199;-90
2024/03/23 10:38:27;;;;;;;6.90;2.78;;;;;;;;;;4947184;29;20211;-90
2024/03/23 10:41:33;;;;;;;8.10;2.58;;;;;;;;;;4948322;29;20223;-90
2024/03/23 10:44:38;;;;;;;14.05;6.13;;;;;;;;;;4948940;28;20195;-88
2024/03/23 10:47:43;;;;;;;4.07;2.17;;;;;;;;;;4946449;29;20203;-89
2024/03/23 10:50:48;;;;;;;5.03;2.45;;;;;;;;;;4930587;29;20280;-90
2024/03/23 10:53:55;;;;;;;5.10;2.50;;;;;;;;;;4947158;29;20207;-90
2024/03/23 10:57:04;;;;;;;4.97;2.78;;;;;;;;;;4956995;28;20203;-91
2024/03/23 11:00:08;;;;;;;5.05;2.33;;;;;;;;;;4948770;29;20202;-89
2024/03/23 11:03:32;;;;;;;4.82;2.72;;;;;;;;;;4931661;29;20207;-90
2024/03/23 11:06:38;;;;;;;5.38;2.78;;;;;;;;;;4928518;29;20192;-89
2024/03/23 11:09:45;;;;;;;5.85;2.47;;;;;;;;;;4943288;28;20198;-88
2024/03/23 11:12:50;;;;;;;5.25;3.10;;;;;;;;;;4947181;29;20234;-89
2024/03/23 11:15:54;;;;;;;8.18;3.60;;;;;;;;;;4953420;29;20186;-90
2024/03/23 11:19:14;;;;;;;7.53;3.90;;;;;;;;;;4933592;29;20207;-91
2024/03/23 11:22:38;;;;;;;8.40;3.72;;;;;;;;;;4939306;29;20215;-89
2024/03/23 11:25:47;;;;;;;6.78;3.50;;;;;;;;;;4947746;29;20272;-88
2024/03/23 11:28:51;;;;;;;6.97;3.50;;;;;;;;;;4941677;29;20215;-87
2024/03/23 11:31:57;;;;;;;8.15;3.80;;;;;;;;;;4948108;29;20226;-89
2024/03/23 11:35:01;;;;;;;8.18;3.75;;;;;;;;;;4948004;28;20240;-91
2024/03/23 11:38:07;;;;;;;10.25;3.78;;;;;;;;;;4947070;29;20234;-89
2024/03/23 11:41:13;;;;;;;9.52;4.25;;;;;;;;;;4946523;29;20206;-89
2024/03/23 11:44:19;;;;;;;8.07;4.05;;;;;;;;;;4945623;29;20203;-89
2024/03/23 11:47:23;;;;;;;7.30;3.70;;;;;;;;;;4944108;29;20211;-89
2024/03/23 11:50:29;;;;;;;7.95;3.75;;;;;;;;;;4944918;28;20199;-89
2024/03/23 11:53:35;;;;;;;8.98;4.15;;;;;;;;;;4945439;29;20195;-90
2024/03/23 11:56:41;;;;;;;10.02;4.72;;;;;;;;;;4945822;29;20186;-91
2024/03/23 11:59:48;;;;;;;7.22;3.58;;;;;;;;;;4947118;29;20195;-90
2024/03/23 12:02:51;;;;;;;8.70;3.97;;;;;;;;;;4951750;29;20246;-89
2024/03/23 12:06:00;;;;;;;8.00;3.80;;;;;;;;;;4955166;28;20246;-91
2024/03/23 12:09:06;;;;;;;13.13;4.22;;;;;;;;;;4949293;29;20207;-90
2024/03/23 12:12:16;;;;;;;5.03;3.15;;;;;;;;;;4949061;29;20272;-89
2024/03/23 12:15:26;;;;;;;6.10;3.17;;;;;;;;;;4951118;29;20202;-90
2024/03/23 12:18:31;;;;;;;6.90;3.50;;;;;;;;;;4953368;29;20207;-90
2024/03/23 12:21:35;;;;;;;4.65;2.70;;;;;;;;;;4951189;29;20187;-89
2024/03/23 12:24:45;;;;;;;6.35;2.45;;;;;;;;;;4957794;28;20226;-87
2024/03/23 12:27:50;;;;;;;4.40;2.40;;;;;;;;;;4949546;29;20235;-90
2024/03/23 12:30:55;;;;;;;4.63;2.35;;;;;;;;;;4933722;29;20178;-90
2024/03/23 12:34:00;;;;;;;3.90;1.95;;;;;;;;;;4958317;29;20195;-89
2024/03/23 12:37:06;;;;;;;3.92;2.50;;;;;;;;;;4953189;29;20206;-90
2024/03/23 12:40:11;;;;;;;3.38;2.30;;;;;;;;;;4937576;28;20219;-91
2024/03/23 12:43:18;;;;;;;3.17;2.33;;;;;;;;;;4949774;29;20235;-89
2024/03/23 12:46:23;;;;;;;3.92;2.25;;;;;;;;;;4941734;29;20207;-89
2024/03/23 12:49:28;;;;;;;2.90;2.13;;;;;;;;;;4955065;29;20211;-90
2024/03/23 12:52:33;;;;;;;3.40;2.30;;;;;;;;;;4949407;29;20698;-90
2024/03/23 12:55:39;;;;;;;1.98;1.15;;;;;;;;;;4948674;28;20242;-90
2024/03/23 12:58:51;;;;;;;0.85;0.60;;;;;;;;;;4948858;29;20211;-92
2024/03/23 13:01:57;;;;;;;0.68;0.60;;;;;;;;;;4948910;29;20203;-88
2024/03/23 13:05:03;;;;;;;0.82;0.82;;;;;;;;;;4940742;28;20739;-89
2024/03/23 13:08:08;;;;;;;3.03;0.63;;;;;;;;;;4960729;29;20277;-92
2024/03/23 13:11:15;;;;;;;0.40;0.40;;;;;;;;;;4948792;29;20206;-91
2024/03/23 13:14:23;;;;;;;0.50;0.50;;;;;;;;;;4950197;28;20285;-90
2024/03/23 13:17:28;;;;;;;0.40;0.40;;;;;;;;;;4949654;29;20289;-89
2024/03/23 13:20:33;;;;;;;0.30;0.30;;;;;;;;;;4947297;29;20178;-90
2024/03/23 13:23:42;;;;;;;0.30;0.30;;;;;;;;;;4950262;29;20254;-90
2024/03/23 13:26:58;;;;;;;0.57;0.50;;;;;;;;;;4950726;28;20215;-90
2024/03/23 13:30:05;;;;;;;0.30;0.30;;;;;;;;;;4949833;29;20687;-90
2024/03/23 13:33:10;;;;;;;0.50;0.50;;;;;;;;;;4946976;28;20211;-91
2024/03/23 13:36:16;;;;;;;0.73;0.50;;;;;;;;;;4950009;28;20211;-90
2024/03/23 13:39:21;;;;;;;0.50;0.50;;;;;;;;;;4938811;29;20231;-89
2024/03/23 13:42:26;;;;;;;0.65;0.65;;;;;;;;;;4943721;28;20333;-89
2024/03/23 13:45:33;;;;;;;0.40;0.40;;;;;;;;;;4936765;29;20676;-91
2024/03/23 13:48:37;;;;;;;0.93;0.70;;;;;;;;;;4945029;29;20200;-91
2024/03/23 13:51:42;;;;;;;0.57;0.57;;;;;;;;;;4944981;29;20195;-89
2024/03/23 13:54:46;;;;;;;3.20;0.68;;;;;;;;;;4948482;29;20206;-90
2024/03/23 13:57:52;;;;;;;0.65;0.65;;;;;;;;;;4939231;28;20231;-90
2024/03/23 14:00:58;;;;;;;0.40;0.40;;;;;;;;;;4946840;29;20288;-89
2024/03/23 14:04:04;;;;;;;0.43;0.43;;;;;;;;;;4945427;29;20219;-89
2024/03/23 14:07:09;;;;;;;0.30;0.30;;;;;;;;;;4946410;28;20195;-89
2024/03/23 14:10:16;;;;;;;0.75;0.70;;;;;;;;;;4946530;28;20702;-89
2024/03/23 14:13:21;;;;;;;0.30;0.30;;;;;;;;;;4944848;28;20247;-91
2024/03/23 14:16:28;;;;;;;12.90;1.52;;;;;;;;;;4928363;28;20663;-89
2024/03/23 14:19:32;;;;;;;0.60;0.60;;;;;;;;;;4927954;28;20259;-88
2024/03/23 14:22:41;;;;;;;0.40;0.40;;;;;;;;;;4931516;29;20211;-88
2024/03/23 14:25:45;;;;;;;0.40;0.40;;;;;;;;;;4936559;29;20263;-88
2024/03/23 14:28:51;;;;;;;1.55;1.02;;;;;;;;;;4946528;28;20239;-89
2024/03/23 14:31:57;;;;;;;0.40;0.40;;;;;;;;;;4938469;28;20222;-91
2024/03/23 14:35:02;;;;;;;0.68;0.60;;;;;;;;;;4946282;29;20275;-92
2024/03/23 14:38:06;;;;;;;0.75;0.52;;;;;;;;;;4945512;29;20270;-91
2024/03/23 14:41:11;;;;;;;0.38;0.35;;;;;;;;;;4945217;29;20239;-88
2024/03/23 14:44:16;;;;;;;0.50;0.50;;;;;;;;;;4947320;28;20281;-91
2024/03/23 14:47:23;;;;;;;0.50;0.50;;;;;;;;;;4943724;29;20198;-90
2024/03/23 14:50:27;;;;;;;0.50;0.50;;;;;;;;;;4947859;29;20195;-87
2024/03/23 14:53:32;;;;;;;0.50;0.50;;;;;;;;;;4937068;29;20258;-91
2024/03/23 14:56:39;;;;;;;0.30;0.30;;;;;;;;;;4945869;29;20320;-88
2024/03/23 14:59:44;;;;;;;0.40;0.40;;;;;;;;;;4943351;29;20566;-91
2024/03/23 15:02:50;;;;;;;0.30;0.30;;;;;;;;;;4944296;29;20205;-91
2024/03/23 15:05:55;;;;;;;0.40;0.40;;;;;;;;;;4939830;29;20617;-89
2024/03/23 15:09:00;;;;;;;0.45;0.45;;;;;;;;;;4941381;29;20219;-90
2024/03/23 15:12:07;;;;;;;0.35;0.35;;;;;;;;;;4946299;29;20222;-88
2024/03/23 15:15:12;;;;;;;0.63;0.63;;;;;;;;;;4946107;29;20227;-90
2024/03/23 15:18:25;;;;;;;0.40;0.40;;;;;;;;;;4944715;29;20282;-88
2024/03/23 15:21:31;;;;;;;0.75;0.75;;;;;;;;;;4946819;29;20258;-90
2024/03/23 15:24:37;;;;;;;0.45;0.45;;;;;;;;;;4942598;29;20191;-89
2024/03/23 15:27:41;;;;;;;0.38;0.38;;;;;;;;;;4944554;29;20247;-89
2024/03/23 15:30:46;;;;;;;0.45;0.45;;;;;;;;;;4943588;29;20210;-91
2024/03/23 15:33:52;;;;;;;0.50;0.50;;;;;;;;;;4939840;29;20258;-90
2024/03/23 15:36:57;;;;;;;0.73;0.73;;;;;;;;;;4935440;29;20207;-89
2024/03/23 15:40:01;;;;;;;1.27;0.88;;;;;;;;;;4952067;28;20202;-89
2024/03/23 15:43:06;;;;;;;1.05;0.95;;;;;;;;;;4950148;29;20254;-90
2024/03/23 15:46:11;;;;;;;0.40;0.40;;;;;;;;;;4933105;29;20285;-90
2024/03/23 15:49:19;;;;;;;0.40;0.40;;;;;;;;;;4945298;29;20677;-90
2024/03/23 15:52:24;;;;;;;0.40;0.40;;;;;;;;;;4951065;28;20234;-88
2024/03/23 15:55:29;;;;;;;0.30;0.30;;;;;;;;;;4951274;28;20203;-88
2024/03/23 15:58:34;;;;;;;1.05;0.50;;;;;;;;;;4932101;28;20188;-88
2024/03/23 16:01:39;;;;;;;1.38;0.60;;;;;;;;;;4949785;29;20195;-88
2024/03/23 16:04:49;;;;;;;0.50;0.50;;;;;;;;;;4950444;29;20198;-88
2024/03/23 16:07:57;;;;;;;0.43;0.43;;;;;;;;;;4953256;28;20191;-89
2024/03/23 16:11:02;;;;;;;0.40;0.40;;;;;;;;;;4945405;29;20206;-90
2024/03/23 16:14:10;;;;;;;0.88;0.82;;;;;;;;;;4948430;29;20218;-89
2024/03/23 16:17:15;;;;;;;0.40;0.40;;;;;;;;;;4943436;29;20560;-89
2024/03/23 16:20:33;;;;;;;0.38;0.38;;;;;;;;;;4940939;29;20238;-91
2024/03/23 16:23:41;;;;;;;0.85;0.57;;;;;;;;;;4935361;29;20201;-90
2024/03/23 16:26:45;;;;;;;1.23;1.05;;;;;;;;;;4949774;28;20303;-88
2024/03/23 16:29:54;;;;;;;0.90;0.82;;;;;;;;;;4942514;28;20203;-89
2024/03/23 16:32:58;;;;;;;1.20;0.82;;;;;;;;;;4949297;29;20251;-90
2024/03/23 16:36:06;;;;;;;0.82;0.77;;;;;;;;;;4943769;29;20263;-86
2024/03/23 16:39:11;;;;;;;0.52;0.52;;;;;;;;;;4940412;28;20307;-89
2024/03/23 16:42:16;;;;;;;0.47;0.47;;;;;;;;;;4939820;29;20294;-89
2024/03/23 16:45:20;;;;;;;0.98;0.63;;;;;;;;;;4951257;28;20195;-93
2024/03/23 16:48:26;;;;;;;0.50;0.50;;;;;;;;;;4944165;29;20191;-86
2024/03/23 16:51:32;;;;;;;1.92;1.05;;;;;;;;;;4947459;29;20285;-89
2024/03/23 16:54:40;;;;;;;1.55;0.70;;;;;;;;;;4941164;29;20238;-88
2024/03/23 16:57:45;;;;;;;0.68;0.65;;;;;;;;;;4958816;29;20195;-89
2024/03/23 17:00:52;;;;;;;0.95;0.63;;;;;;;;;;4941677;29;20208;-88
2024/03/23 17:03:57;;;;;;;2.65;0.93;;;;;;;;;;4945871;29;20203;-89
2024/03/23 17:07:04;;;;;;;0.80;0.73;;;;;;;;;;4947453;28;20275;-90
2024/03/23 17:10:09;;;;;;;7.35;3.25;;;;;;;;;;4929111;29;20204;-89
2024/03/23 17:13:14;;;;;;;9.40;3.63;;;;;;;;;;4936580;28;20226;-90
2024/03/23 17:16:18;;;;;;;6.40;2.67;;;;;;;;;;4949662;29;20324;-90
2024/03/23 17:19:26;;;;;;;11.00;3.72;;;;;;;;;;4948554;29;20190;-89
2024/03/23 17:22:32;;;;;;;8.30;3.38;;;;;;;;;;4935879;29;20190;-88
2024/03/23 17:25:37;;;;;;;8.98;3.60;;;;;;;;;;4942882;29;20210;-89
2024/03/23 17:28:42;;;;;;;16.92;6.78;;;;;;;;;;4945995;28;20199;-92
2024/03/23 17:31:46;;;;;;;9.05;4.57;;;;;;;;;;4940102;29;20287;-91
2024/03/23 17:34:50;;;;;;;10.13;4.13;;;;;;;;;;4947424;29;20222;-90
2024/03/23 17:37:58;;;;;;;11.27;3.97;;;;;;;;;;4947778;28;20203;-87
2024/03/23 17:41:03;;;;;;;8.82;3.45;;;;;;;;;;4927946;28;20196;-88
2024/03/23 17:44:13;;;;;;;10.75;3.63;;;;;;;;;;4937607;29;20251;-89
2024/03/23 17:47:17;;;;;;;9.52;4.03;;;;;;;;;;4948884;29;20250;-88
2024/03/23 17:50:23;;;;;;;8.15;3.50;;;;;;;;;;4946204;29;20187;-88
2024/03/23 17:53:28;;;;;;;21.00;7.68;;;;;;;;;;4946156;29;20227;-87
2024/03/23 17:56:33;;;;;;;9.75;3.47;;;;;;;;;;4938793;28;20239;-89
2024/03/23 17:59:37;;;;;;;6.55;3.45;;;;;;;;;;4933515;28;20219;-89
2024/03/23 18:02:43;;;;;;;10.70;4.60;;;;;;;;;;4948874;29;20239;-89
2024/03/23 18:05:47;;;;;;;8.48;3.30;;;;;;;;;;4941841;29;20240;-88
2024/03/23 18:08:56;;;;;;;12.57;3.40;;;;;;;;;;4940948;28;20238;-88
2024/03/23 18:12:00;;;;;;;7.47;3.72;;;;;;;;;;4932238;29;20228;-88
2024/03/23 18:15:07;;;;;;;26.10;10.55;;;;;;;;;;4937599;29;20635;-87
2024/03/23 18:18:11;;;;;;;7.63;2.83;;;;;;;;;;4926488;29;20255;-88
2024/03/23 18:21:18;;;;;;;8.00;2.90;;;;;;;;;;4939093;29;20228;-87